VKG1444 ESMS-LGSA
Flight info
| Callsign | VKG1444 |
|---|---|
| Flight time | 3h 0m |
| Altitude | 35000 |
| Route | TELMO Z491 VAVUN L996 DENKO DCT REGLI DCT BILNA DCT PARAK DCT RAXAD DCT MAKED UL617 SKP UM749 ATV UP169 MANOK L612 RUSOS |
| Aircraft | A321/M-SDE3FGHIRWY/LB1 |
Departure
| Time | 2026-04-30 14:51 |
|---|---|
| Airport | Malmö Sturup Airport (ESMS) |
Arrival
| Time | 2026-04-30 17:51 |
|---|---|
| Airport | Chania International Airport (LGSA) |
| Time | Latitude | Longitude | Altitude | Speed | Heading |
|---|---|---|---|---|---|
| 2026-04-30 13:36 | 55.54103 | 13.36850 | 231 ft | 0 kts | 173° |
| 2026-04-30 13:54 | 55.54104 | 13.36850 | 231 ft | 0 kts | 173° |
| 2026-04-30 14:29 | 55.54105 | 13.36850 | 231 ft | 0 kts | 173° |
| 2026-04-30 14:38 | 55.54107 | 13.36849 | 231 ft | 2 kts | 173° |
| 2026-04-30 14:38 | 55.54133 | 13.36844 | 256 ft | 3 kts | 173° |
| 2026-04-30 14:38 | 55.54153 | 13.36838 | 232 ft | 4 kts | 144° |
| 2026-04-30 14:38 | 55.54164 | 13.36806 | 234 ft | 4 kts | 86° |
| 2026-04-30 14:39 | 55.54162 | 13.36775 | 231 ft | 0 kts | 83° |
| 2026-04-30 14:43 | 55.54163 | 13.36782 | 234 ft | 3 kts | 83° |
| 2026-04-30 14:43 | 55.54167 | 13.36843 | 231 ft | 4 kts | 83° |
| 2026-04-30 14:43 | 55.54171 | 13.36911 | 231 ft | 8 kts | 83° |
| 2026-04-30 14:43 | 55.54178 | 13.37017 | 231 ft | 8 kts | 83° |
| 2026-04-30 14:44 | 55.54192 | 13.37098 | 231 ft | 6 kts | 61° |
| 2026-04-30 14:44 | 55.54204 | 13.37177 | 231 ft | 10 kts | 107° |
| 2026-04-30 14:44 | 55.54137 | 13.37224 | 231 ft | 10 kts | 176° |
| 2026-04-30 14:44 | 55.54040 | 13.37242 | 231 ft | 20 kts | 172° |
| 2026-04-30 14:45 | 55.53895 | 13.37273 | 231 ft | 20 kts | 173° |
| 2026-04-30 14:45 | 55.53760 | 13.37306 | 234 ft | 19 kts | 177° |
| 2026-04-30 14:45 | 55.53637 | 13.37325 | 231 ft | 17 kts | 173° |
| 2026-04-30 14:45 | 55.53527 | 13.37350 | 231 ft | 15 kts | 173° |
| 2026-04-30 14:46 | 55.53428 | 13.37369 | 234 ft | 14 kts | 173° |
| 2026-04-30 14:46 | 55.53334 | 13.37388 | 233 ft | 15 kts | 173° |
| 2026-04-30 14:46 | 55.53213 | 13.37415 | 231 ft | 18 kts | 172° |
| 2026-04-30 14:46 | 55.53094 | 13.37440 | 233 ft | 16 kts | 175° |
| 2026-04-30 14:47 | 55.52987 | 13.37460 | 232 ft | 15 kts | 173° |
| 2026-04-30 14:47 | 55.52890 | 13.37479 | 232 ft | 13 kts | 174° |
| 2026-04-30 14:47 | 55.52804 | 13.37496 | 233 ft | 13 kts | 173° |
| 2026-04-30 14:47 | 55.52687 | 13.37521 | 231 ft | 17 kts | 173° |
| 2026-04-30 14:48 | 55.52572 | 13.37545 | 231 ft | 16 kts | 173° |
| 2026-04-30 14:48 | 55.52481 | 13.37569 | 231 ft | 14 kts | 167° |
| 2026-04-30 14:48 | 55.52399 | 13.37643 | 232 ft | 12 kts | 140° |
| 2026-04-30 14:48 | 55.52340 | 13.37730 | 233 ft | 10 kts | 140° |
| 2026-04-30 14:49 | 55.52313 | 13.37807 | 236 ft | 6 kts | 96° |
| 2026-04-30 14:49 | 55.52320 | 13.37880 | 238 ft | 6 kts | 57° |
| 2026-04-30 14:49 | 55.52352 | 13.37886 | 238 ft | 7 kts | 352° |
| 2026-04-30 14:49 | 55.52363 | 13.37882 | 238 ft | 0 kts | 352° |
| 2026-04-30 14:50 | 55.52501 | 13.37852 | 239 ft | 46 kts | 352° |
| 2026-04-30 14:50 | 55.53047 | 13.37740 | 241 ft | 108 kts | 352° |
| 2026-04-30 14:51 | 55.55073 | 13.37334 | 702 ft | 159 kts | 349° |
| 2026-04-30 14:51 | 55.56161 | 13.37124 | 1379 ft | 159 kts | 350° |
| 2026-04-30 14:51 | 55.58398 | 13.36681 | 2374 ft | 174 kts | 351° |
| 2026-04-30 14:52 | 55.59674 | 13.36417 | 2533 ft | 196 kts | 351° |
| 2026-04-30 14:52 | 55.62425 | 13.36796 | 3620 ft | 211 kts | 37° |
| 2026-04-30 14:52 | 55.63203 | 13.39008 | 4273 ft | 221 kts | 78° |
| 2026-04-30 14:53 | 55.61992 | 13.44057 | 5594 ft | 238 kts | 129° |
| 2026-04-30 14:53 | 55.60840 | 13.46137 | 6276 ft | 240 kts | 132° |
| 2026-04-30 14:54 | 55.58444 | 13.50282 | 7632 ft | 243 kts | 130° |
| 2026-04-30 14:54 | 55.55544 | 13.53507 | 8771 ft | 264 kts | 163° |
| 2026-04-30 14:55 | 55.51599 | 13.54185 | 9369 ft | 303 kts | 173° |
| 2026-04-30 14:55 | 55.49473 | 13.54491 | 10038 ft | 307 kts | 173° |
| 2026-04-30 14:55 | 55.45063 | 13.55162 | 10814 ft | 337 kts | 172° |
| 2026-04-30 14:56 | 55.40374 | 13.57437 | 11382 ft | 359 kts | 145° |
| 2026-04-30 14:56 | 55.36566 | 13.62997 | 12667 ft | 359 kts | 133° |
| 2026-04-30 14:57 | 55.34698 | 13.65951 | 13347 ft | 362 kts | 133° |
| 2026-04-30 14:57 | 55.30931 | 13.71905 | 14627 ft | 367 kts | 133° |
| 2026-04-30 14:58 | 55.27109 | 13.77927 | 15749 ft | 374 kts | 133° |
| 2026-04-30 14:58 | 55.25155 | 13.80988 | 16287 ft | 377 kts | 133° |
| 2026-04-30 14:58 | 55.21192 | 13.87189 | 17371 ft | 385 kts | 132° |
| 2026-04-30 14:59 | 55.17189 | 13.93457 | 18418 ft | 392 kts | 132° |
| 2026-04-30 15:00 | 55.10984 | 14.03102 | 19797 ft | 401 kts | 132° |
| 2026-04-30 15:00 | 55.06818 | 14.09622 | 20654 ft | 405 kts | 128° |
| 2026-04-30 15:01 | 55.03565 | 14.17509 | 21515 ft | 399 kts | 113° |
| 2026-04-30 15:01 | 55.02668 | 14.20312 | 21802 ft | 401 kts | 113° |
| 2026-04-30 15:01 | 54.99492 | 14.30174 | 22780 ft | 408 kts | 113° |
| 2026-04-30 15:02 | 54.98093 | 14.34496 | 23199 ft | 411 kts | 113° |
| 2026-04-30 15:02 | 54.96627 | 14.38818 | 23598 ft | 418 kts | 118° |
| 2026-04-30 15:03 | 54.89841 | 14.48968 | 24665 ft | 445 kts | 146° |
| 2026-04-30 15:03 | 54.84398 | 14.54118 | 25358 ft | 450 kts | 146° |
| 2026-04-30 15:04 | 54.78596 | 14.58516 | 26031 ft | 460 kts | 156° |
| 2026-04-30 15:04 | 54.69463 | 14.64133 | 27027 ft | 467 kts | 156° |
| 2026-04-30 15:05 | 54.60258 | 14.69791 | 28008 ft | 473 kts | 156° |
| 2026-04-30 15:06 | 54.54016 | 14.73606 | 28646 ft | 477 kts | 156° |
| 2026-04-30 15:06 | 54.47758 | 14.77420 | 29215 ft | 481 kts | 155° |
| 2026-04-30 15:07 | 54.41406 | 14.81277 | 29784 ft | 485 kts | 155° |
| 2026-04-30 15:07 | 54.35007 | 14.85147 | 30351 ft | 490 kts | 155° |
| 2026-04-30 15:08 | 54.28554 | 14.89025 | 30974 ft | 490 kts | 155° |
| 2026-04-30 15:08 | 54.18921 | 14.94613 | 32073 ft | 487 kts | 156° |
| 2026-04-30 15:09 | 54.12488 | 14.98242 | 32802 ft | 485 kts | 156° |
| 2026-04-30 15:09 | 54.06119 | 15.01834 | 33530 ft | 483 kts | 156° |
| 2026-04-30 15:10 | 53.99712 | 15.05351 | 34240 ft | 482 kts | 156° |
| 2026-04-30 15:11 | 53.86971 | 15.12216 | 35347 ft | 480 kts | 156° |
| 2026-04-30 15:11 | 53.80685 | 15.15602 | 35434 ft | 476 kts | 156° |
| 2026-04-30 15:13 | 53.64963 | 15.24055 | 35436 ft | 475 kts | 156° |
| 2026-04-30 15:14 | 53.44172 | 15.35897 | 35423 ft | 468 kts | 148° |
| 2026-04-30 15:17 | 53.17476 | 15.56307 | 35414 ft | 469 kts | 148° |
| 2026-04-30 15:19 | 52.93692 | 15.74277 | 35426 ft | 470 kts | 148° |
| 2026-04-30 17:39 | 36.01755 | 24.31281 | 18132 ft | 377 kts | 195° |
| 2026-04-30 17:41 | 35.81898 | 24.25730 | 14069 ft | 363 kts | 196° |
| 2026-04-30 17:42 | 35.77020 | 24.24363 | 13065 ft | 359 kts | 196° |
| 2026-04-30 17:42 | 35.70530 | 24.27533 | 12065 ft | 351 kts | 120° |
| 2026-04-30 17:43 | 35.68071 | 24.32455 | 11645 ft | 328 kts | 127° |
| 2026-04-30 17:44 | 35.63190 | 24.38075 | 9745 ft | 316 kts | 149° |
| 2026-04-30 17:44 | 35.57296 | 24.41257 | 7256 ft | 304 kts | 168° |
| 2026-04-30 17:46 | 35.47471 | 24.41290 | 4064 ft | 249 kts | 201° |
| 2026-04-30 17:47 | 35.46446 | 24.35122 | 3215 ft | 217 kts | 291° |
| 2026-04-30 17:48 | 35.48648 | 24.28544 | 2317 ft | 202 kts | 292° |
| 2026-04-30 17:48 | 35.50077 | 24.24236 | 1774 ft | 157 kts | 291° |
| 2026-04-30 17:49 | 35.51644 | 24.19651 | 1093 ft | 144 kts | 290° |
| 2026-04-30 17:50 | 35.53077 | 24.15278 | 486 ft | 102 kts | 292° |
| 2026-04-30 17:51 | 35.53493 | 24.14001 | 500 ft | 34 kts | 292° |
| 2026-04-30 17:52 | 35.53715 | 24.13457 | 493 ft | 5 kts | 26° |
| 2026-04-30 17:53 | 35.53791 | 24.13654 | 494 ft | 12 kts | 112° |
| 2026-04-30 17:54 | 35.53832 | 24.13830 | 498 ft | 4 kts | 30° |
| 2026-04-30 17:55 | 35.53863 | 24.13932 | 494 ft | 6 kts | 20° |
| 2026-04-30 17:56 | 35.53897 | 24.13948 | 498 ft | 1 kts | 20° |
| 2026-04-30 17:57 | 35.53912 | 24.13955 | 498 ft | 0 kts | 21° |